createdAt,value
2022-10-07T00:00:56.011Z,99930.75
2022-10-07T00:03:25.868Z,99929.59
2022-10-07T00:06:22.257Z,99931.72
2022-10-07T00:08:51.820Z,99932.91
2022-10-07T00:11:30.005Z,99932.31
2022-10-07T00:14:02.768Z,99932.31
2022-10-07T00:16:32.697Z,99932.63
2022-10-07T00:19:03.160Z,99928.28
2022-10-07T00:21:33.320Z,99926.84
2022-10-07T00:24:00.173Z,99928.78
2022-10-07T00:26:29.732Z,99914.31
2022-10-07T00:28:57.466Z,99921.78
2022-10-07T00:31:27.717Z,99911.47
2022-10-07T00:33:55.453Z,99920.88
2022-10-07T00:36:24.643Z,99914.91
2022-10-07T00:39:15.000Z,99910.94
2022-10-07T00:41:52.643Z,99899.44
2022-10-07T00:44:35.732Z,99903.72
2022-10-07T00:47:07.197Z,99896.84
2022-10-07T00:49:42.702Z,99893.03
2022-10-07T00:52:09.586Z,99899.00
2022-10-07T00:54:37.696Z,99883.03
2022-10-07T00:57:04.964Z,99885.44
2022-10-07T00:59:31.847Z,99890.69
2022-10-07T01:01:58.689Z,99884.72
2022-10-07T01:04:25.618Z,99886.41
2022-10-07T01:06:52.549Z,99879.69
2022-10-07T01:09:21.419Z,99874.75
2022-10-07T01:12:09.868Z,99868.94
2022-10-07T01:15:03.036Z,99866.16
2022-10-07T01:17:38.776Z,99864.00
2022-10-07T01:20:27.288Z,99852.06
2022-10-07T01:23:29.055Z,99854.88
2022-10-07T01:26:05.095Z,99844.81
2022-10-07T01:28:43.986Z,99839.88
2022-10-07T01:31:16.327Z,99842.84
2022-10-07T01:33:45.590Z,99836.28
2022-10-07T01:36:17.407Z,99827.28
2022-10-07T01:39:07.989Z,99828.13
2022-10-07T01:41:38.614Z,99817.28
2022-10-07T01:44:07.277Z,99814.31
2022-10-07T01:46:37.701Z,99815.59
2022-10-07T01:49:06.193Z,99817.16
2022-10-07T01:51:41.551Z,99807.34
2022-10-07T01:54:22.407Z,99802.16
2022-10-07T01:57:21.992Z,99803.59
2022-10-07T01:59:53.066Z,99802.75
2022-10-07T02:02:53.153Z,99793.41
2022-10-07T02:05:42.436Z,99796.06
2022-10-07T02:08:16.436Z,99789.50
2022-10-07T02:11:05.938Z,99786.16
2022-10-07T02:13:55.975Z,99787.00
2022-10-07T02:16:34.016Z,99785.06
2022-10-07T02:19:04.442Z,99783.75
2022-10-07T02:21:34.351Z,99772.69
2022-10-07T02:24:02.877Z,99779.25
2022-10-07T02:26:32.662Z,99771.97
2022-10-07T02:29:04.193Z,99770.13
2022-10-07T02:31:33.855Z,99765.19
2022-10-07T02:34:04.366Z,99768.94
2022-10-07T02:36:39.735Z,99763.41
2022-10-07T02:39:07.675Z,99774.31
2022-10-07T02:42:13.999Z,99760.41
2022-10-07T02:44:52.206Z,99758.69
2022-10-07T02:47:59.049Z,99764.75
2022-10-07T02:50:31.680Z,99759.66
2022-10-07T02:53:01.895Z,99766.00
2022-10-07T02:55:30.998Z,99764.59
2022-10-07T02:58:00.666Z,99758.63
2022-10-07T03:00:31.061Z,99754.50
2022-10-07T03:03:03.148Z,99746.34
2022-10-07T03:05:30.444Z,99748.25
2022-10-07T03:08:07.535Z,99741.09
2022-10-07T03:10:35.071Z,99742.94
2022-10-07T03:13:05.073Z,99745.16
2022-10-07T03:15:32.691Z,99738.94
2022-10-07T03:17:59.538Z,99736.31
2022-10-07T03:20:28.693Z,99736.09
2022-10-07T03:22:55.917Z,99736.69
2022-10-07T03:25:24.892Z,99733.38
2022-10-07T03:27:51.633Z,99736.03
2022-10-07T03:30:24.696Z,99735.13
2022-10-07T03:32:51.490Z,99722.00
2022-10-07T03:35:18.381Z,99725.25
2022-10-07T03:37:45.496Z,99722.50
2022-10-07T03:40:12.518Z,99716.78
2022-10-07T03:42:40.098Z,99710.22
2022-10-07T03:45:07.376Z,99705.38
2022-10-07T03:47:34.105Z,99710.31
2022-10-07T03:50:00.823Z,99706.16
2022-10-07T03:52:27.643Z,99713.97
2022-10-07T03:54:56.667Z,99704.09
2022-10-07T03:57:42.380Z,99712.28
2022-10-07T04:00:09.776Z,99710.34
2022-10-07T04:02:36.464Z,99708.63
2022-10-07T04:05:03.476Z,99704.00
2022-10-07T04:07:30.162Z,99699.94
2022-10-07T04:09:56.877Z,99693.78
2022-10-07T04:12:23.611Z,99691.66
2022-10-07T04:14:50.455Z,99698.41
2022-10-07T04:17:18.890Z,99698.72
2022-10-07T04:19:45.711Z,99692.16
2022-10-07T04:22:12.538Z,99683.47
2022-10-07T04:24:39.362Z,99681.53
2022-10-07T04:27:06.282Z,99682.03
2022-10-07T04:29:36.736Z,99679.13
2022-10-07T04:32:05.741Z,99681.84
2022-10-07T04:34:32.629Z,99678.72
2022-10-07T04:37:01.135Z,99671.97
2022-10-07T04:39:49.008Z,99666.59
2022-10-07T04:42:33.633Z,99657.69
2022-10-07T04:45:00.329Z,99662.63
2022-10-07T04:47:27.173Z,99661.53
2022-10-07T04:49:54.395Z,99659.09
2022-10-07T04:52:21.186Z,99650.50
2022-10-07T04:54:47.893Z,99648.56
2022-10-07T04:57:14.829Z,99654.25
2022-10-07T04:59:42.963Z,99655.97
2022-10-07T05:02:10.612Z,99659.56
2022-10-07T05:04:37.543Z,99654.34
2022-10-07T05:07:04.835Z,99649.91
2022-10-07T05:09:31.680Z,99653.22
2022-10-07T05:11:58.769Z,99649.69
2022-10-07T05:14:25.566Z,99650.19
2022-10-07T05:16:52.599Z,99653.66
2022-10-07T05:19:20.168Z,99654.25
2022-10-07T05:21:47.198Z,99642.31
2022-10-07T05:24:13.863Z,99646.34
2022-10-07T05:26:40.569Z,99648.81
2022-10-07T05:29:07.451Z,99641.72
2022-10-07T05:31:34.349Z,99641.13
2022-10-07T05:34:02.898Z,99644.38
2022-10-07T05:36:30.054Z,99639.50
2022-10-07T05:38:58.040Z,99642.25
2022-10-07T05:41:25.688Z,99642.25
2022-10-07T05:43:52.382Z,99635.16
2022-10-07T05:46:23.739Z,99640.31
2022-10-07T05:48:52.412Z,99634.66
2022-10-07T05:51:21.515Z,99640.31
2022-10-07T05:53:48.702Z,99637.72
2022-10-07T05:56:17.800Z,99639.34
2022-10-07T05:58:46.040Z,99635.28
2022-10-07T06:01:18.550Z,99633.97
2022-10-07T06:03:54.163Z,99631.25
2022-10-07T06:06:21.522Z,99632.88
2022-10-07T06:08:49.194Z,99627.41
2022-10-07T06:11:36.029Z,99629.41
2022-10-07T06:14:04.045Z,99626.41
2022-10-07T06:16:31.634Z,99623.06
2022-10-07T06:18:59.745Z,99629.53
2022-10-07T06:21:27.997Z,99630.94
2022-10-07T06:23:57.893Z,99624.38
2022-10-07T06:26:24.766Z,99626.00
2022-10-07T06:28:51.505Z,99633.38
2022-10-07T06:31:25.529Z,99622.97
2022-10-07T06:33:52.824Z,99626.31
2022-10-07T06:36:19.582Z,99629.75
2022-10-07T06:38:48.308Z,99627.44
2022-10-07T06:41:16.161Z,99623.81
2022-10-07T06:43:43.288Z,99627.84
2022-10-07T06:46:14.186Z,99624.81
2022-10-07T06:48:42.538Z,99627.56
2022-10-07T06:51:34.905Z,99626.63
2022-10-07T06:54:01.666Z,99629.91
2022-10-07T06:56:28.922Z,99624.44
2022-10-07T06:58:55.641Z,99624.84
2022-10-07T07:01:22.767Z,99626.28
2022-10-07T07:03:49.548Z,99631.31
2022-10-07T07:06:16.960Z,99627.69
2022-10-07T07:08:45.713Z,99631.09
2022-10-07T07:11:32.110Z,99619.47
2022-10-07T07:13:59.457Z,99625.03
2022-10-07T07:16:27.048Z,99629.06
2022-10-07T07:18:55.391Z,99624.81
2022-10-07T07:21:24.002Z,99623.81
2022-10-07T07:23:53.842Z,99627.75
2022-10-07T07:26:21.486Z,99631.97
2022-10-07T07:28:59.358Z,99626.53
2022-10-07T07:31:28.886Z,99628.13
2022-10-07T07:34:01.811Z,99630.75
2022-10-07T07:36:30.251Z,99635.19
2022-10-07T07:39:00.405Z,99635.88
2022-10-07T07:41:30.493Z,99635.75
2022-10-07T07:43:59.864Z,99630.97
2022-10-07T07:46:32.352Z,99626.50
2022-10-07T07:48:59.104Z,99631.25
2022-10-07T07:51:26.034Z,99633.22
2022-10-07T07:53:52.789Z,99635.84
2022-10-07T07:56:20.964Z,99633.72
2022-10-07T07:58:48.341Z,99625.34
2022-10-07T08:01:18.691Z,99631.81
2022-10-07T08:03:47.624Z,99632.47
2022-10-07T08:06:17.696Z,99633.34
2022-10-07T08:08:44.670Z,99635.31
2022-10-07T08:11:17.024Z,99628.47
2022-10-07T08:13:44.321Z,99617.63
2022-10-07T08:16:14.198Z,99620.63
2022-10-07T08:18:46.597Z,99622.63
2022-10-07T08:21:14.902Z,99619.41
2022-10-07T08:23:41.653Z,99620.28
2022-10-07T08:26:09.819Z,99616.94
2022-10-07T08:28:39.152Z,99618.88
2022-10-07T08:31:11.990Z,99615.22
2022-10-07T08:33:40.636Z,99616.81
2022-10-07T08:36:11.412Z,99613.25
2022-10-07T08:38:40.300Z,99613.56
2022-10-07T08:41:06.983Z,99610.91
2022-10-07T08:43:34.802Z,99611.97
2022-10-07T08:46:04.134Z,99605.47
2022-10-07T08:48:38.242Z,99608.69
2022-10-07T08:51:19.950Z,99603.13
2022-10-07T08:53:53.138Z,99598.38
2022-10-07T08:56:23.278Z,99600.78
2022-10-07T08:59:12.802Z,99590.84
2022-10-07T09:01:49.281Z,99591.28
2022-10-07T09:04:56.946Z,99589.13
2022-10-07T09:07:48.418Z,99589.69
2022-10-07T09:10:27.684Z,99585.25
2022-10-07T09:13:03.605Z,99582.41
2022-10-07T09:15:42.564Z,99585.91
2022-10-07T09:18:22.532Z,99582.59
2022-10-07T09:20:54.014Z,99580.31
2022-10-07T09:23:35.895Z,99579.16
2022-10-07T09:26:10.298Z,99569.75
2022-10-07T09:28:37.196Z,99575.13
2022-10-07T09:31:04.200Z,99569.97
2022-10-07T09:33:31.590Z,99571.59
2022-10-07T09:36:07.904Z,99569.75
2022-10-07T09:38:38.838Z,99555.56
2022-10-07T09:41:17.652Z,99555.34
2022-10-07T09:44:14.467Z,99544.75
2022-10-07T09:46:46.911Z,99548.94
2022-10-07T09:49:33.938Z,99550.50
2022-10-07T09:52:04.721Z,99550.97
2022-10-07T09:54:33.602Z,99542.22
2022-10-07T09:57:03.485Z,99546.97
2022-10-07T09:59:32.829Z,99549.31
2022-10-07T10:02:17.927Z,99547.56
2022-10-07T10:04:54.010Z,99544.03
2022-10-07T10:07:26.090Z,99541.63
2022-10-07T10:09:55.888Z,99541.53
2022-10-07T10:12:24.995Z,99532.44
2022-10-07T10:14:58.522Z,99535.06
2022-10-07T10:17:30.138Z,99534.53
2022-10-07T10:20:36.216Z,99529.28
2022-10-07T10:23:28.816Z,99527.78
2022-10-07T10:26:28.334Z,99521.16
2022-10-07T10:29:45.933Z,99522.47
2022-10-07T10:32:25.427Z,99533.56
2022-10-07T10:35:07.078Z,99523.13
2022-10-07T10:37:39.827Z,99519.63
2022-10-07T10:40:09.709Z,99506.91
2022-10-07T10:43:21.762Z,99501.97
2022-10-07T10:46:25.803Z,99508.34
2022-10-07T10:49:07.087Z,99511.56
2022-10-07T10:52:15.113Z,99505.88
2022-10-07T10:55:01.138Z,99496.72
2022-10-07T10:57:49.605Z,99496.56
2022-10-07T11:00:19.931Z,99491.13
2022-10-07T11:03:11.700Z,99492.47
2022-10-07T11:05:40.347Z,99488.34
2022-10-07T11:08:19.951Z,99483.00
2022-10-07T11:10:46.680Z,99480.38
2022-10-07T11:13:43.955Z,99475.78
2022-10-07T11:16:22.330Z,99473.19
2022-10-07T11:18:57.606Z,99468.69
2022-10-07T11:21:41.898Z,99458.41
2022-10-07T11:24:24.048Z,99466.75
2022-10-07T11:26:58.110Z,99459.28
2022-10-07T11:29:40.004Z,99458.84
2022-10-07T11:32:14.029Z,99448.78
2022-10-07T11:35:19.708Z,99447.53
2022-10-07T11:37:52.542Z,99445.75
2022-10-07T11:40:25.694Z,99436.47
2022-10-07T11:43:00.423Z,99437.09
2022-10-07T11:45:34.231Z,99428.63
2022-10-07T11:48:07.654Z,99426.22
2022-10-07T11:50:42.021Z,99425.50
2022-10-07T11:53:15.722Z,99424.88
2022-10-07T11:56:00.938Z,99426.72
2022-10-07T11:58:32.899Z,99424.38
2022-10-07T12:02:06.113Z,99414.00
2022-10-07T12:04:35.236Z,99407.66
2022-10-07T12:07:56.604Z,99402.13
2022-10-07T12:10:32.205Z,99389.75
2022-10-07T12:13:22.348Z,99384.63
2022-10-07T12:15:50.476Z,99375.50
2022-10-07T12:18:17.350Z,99375.91
2022-10-07T12:20:56.995Z,99380.28
2022-10-07T12:23:25.840Z,99377.81
2022-10-07T12:25:58.322Z,99376.41
2022-10-07T12:28:37.247Z,99367.41
2022-10-07T12:31:26.138Z,99357.16
2022-10-07T12:34:04.483Z,99349.94
2022-10-07T12:36:35.328Z,99355.50
2022-10-07T12:39:01.982Z,99354.63
2022-10-07T12:44:52.905Z,99348.47
2022-10-07T12:47:29.717Z,99354.66
2022-10-07T12:50:02.883Z,99345.19
2022-10-07T12:52:33.219Z,99347.25
2022-10-07T12:55:07.451Z,99342.34
2022-10-07T12:57:40.226Z,99338.69
2022-10-07T13:00:15.745Z,99336.91
2022-10-07T13:03:04.274Z,99334.91
2022-10-07T13:06:08.766Z,99326.16
2022-10-07T13:09:32.281Z,99316.66
2022-10-07T13:12:13.772Z,99313.72
2022-10-07T13:15:12.078Z,99299.75
2022-10-07T13:17:54.566Z,99305.28
2022-10-07T13:20:36.733Z,99292.00
2022-10-07T13:23:26.852Z,99287.09
2022-10-07T13:25:58.304Z,99287.66
2022-10-07T13:28:30.820Z,99287.41
2022-10-07T13:31:12.573Z,99287.56
2022-10-07T13:33:44.503Z,99277.72
2022-10-07T13:36:14.410Z,99277.75
2022-10-07T13:38:51.130Z,99270.78
2022-10-07T13:41:22.888Z,99273.66
2022-10-07T13:44:01.108Z,99267.97
2022-10-07T13:46:39.084Z,99268.72
2022-10-07T13:49:06.458Z,99253.31
2022-10-07T13:51:42.640Z,99265.88
2022-10-07T13:54:25.832Z,99260.38
2022-10-07T13:56:53.358Z,99259.22
2022-10-07T13:59:22.035Z,99247.75
2022-10-07T14:01:52.136Z,99248.00
2022-10-07T14:04:28.494Z,99245.25
2022-10-07T14:07:19.445Z,99247.63
2022-10-07T14:10:00.991Z,99236.91
2022-10-07T14:12:35.232Z,99240.56
2022-10-07T14:15:13.219Z,99237.34
2022-10-07T14:17:59.330Z,99229.03
2022-10-07T14:20:34.453Z,99229.13
2022-10-07T14:23:18.088Z,99227.09
2022-10-07T14:25:47.987Z,99227.00
2022-10-07T14:28:17.867Z,99228.63
2022-10-07T14:31:27.330Z,99233.38
2022-10-07T14:34:18.732Z,99229.25
2022-10-07T14:37:14.330Z,99223.03
2022-10-07T14:39:53.044Z,99213.19
2022-10-07T14:42:26.309Z,99213.00
2022-10-07T14:44:56.097Z,99204.63
2022-10-07T14:47:28.241Z,99202.09
2022-10-07T14:49:56.544Z,99204.53
2022-10-07T14:52:43.573Z,99200.75
2022-10-07T14:55:21.384Z,99193.72
2022-10-07T14:57:48.131Z,99194.16
2022-10-07T15:00:21.769Z,99199.41
2022-10-07T15:02:57.949Z,99193.75
2022-10-07T15:05:26.611Z,99186.88
2022-10-07T15:07:53.333Z,99171.63
2022-10-07T15:10:25.221Z,99176.31
2022-10-07T15:12:52.910Z,99167.72
2022-10-07T15:15:46.304Z,99171.00
2022-10-07T15:18:13.010Z,99167.91
2022-10-07T15:20:40.894Z,99159.72
2022-10-07T15:23:08.963Z,99156.78
2022-10-07T15:25:39.635Z,99154.75
2022-10-07T15:28:06.393Z,99159.09
2022-10-07T15:30:38.386Z,99155.81
2022-10-07T15:33:06.135Z,99150.41
2022-10-07T15:35:33.047Z,99141.31
2022-10-07T15:38:02.209Z,99142.41
2022-10-07T15:40:32.322Z,99139.81
2022-10-07T15:43:01.587Z,99143.84
2022-10-07T15:45:28.799Z,99136.63
2022-10-07T15:48:23.120Z,99140.19
2022-10-07T15:50:53.964Z,99136.63
2022-10-07T15:53:22.027Z,99135.13
2022-10-07T15:56:00.706Z,99123.22
2022-10-07T15:58:30.678Z,99131.94
2022-10-07T16:01:00.796Z,99130.16
2022-10-07T16:03:32.141Z,99126.88
2022-10-07T16:06:04.250Z,99125.53
2022-10-07T16:08:32.308Z,99125.91
2022-10-07T16:11:04.305Z,99133.72
2022-10-07T16:13:33.840Z,99129.00
2022-10-07T16:16:03.647Z,99119.34
2022-10-07T16:18:39.103Z,99115.81
2022-10-07T16:21:08.131Z,99115.97
2022-10-07T16:23:37.119Z,99109.78
2022-10-07T16:26:05.864Z,99109.91
2022-10-07T16:28:51.391Z,99119.13
2022-10-07T16:31:18.687Z,99100.50
2022-10-07T16:33:50.481Z,99104.09
2022-10-07T16:36:17.237Z,99096.59
2022-10-07T16:38:44.222Z,99103.38
2022-10-07T16:41:11.116Z,99098.81
2022-10-07T16:43:37.871Z,99097.81
2022-10-07T16:46:08.922Z,99098.75
2022-10-07T16:48:41.366Z,99093.03
2022-10-07T16:51:17.563Z,99100.00
2022-10-07T16:53:46.628Z,99103.00
2022-10-07T16:56:14.090Z,99104.25
2022-10-07T16:58:41.265Z,99105.09
2022-10-07T17:01:13.739Z,99095.81
2022-10-07T17:03:42.191Z,99098.81
2022-10-07T17:06:13.039Z,99096.97
2022-10-07T17:08:44.932Z,99100.41
2022-10-07T17:11:30.492Z,99100.06
2022-10-07T17:14:23.796Z,99104.97
2022-10-07T17:16:55.558Z,99105.41
2022-10-07T17:19:25.036Z,99101.59
2022-10-07T17:21:56.781Z,99107.44
2022-10-07T17:24:24.270Z,99109.25
2022-10-07T17:26:52.648Z,99104.22
2022-10-07T17:29:21.380Z,99110.25
2022-10-07T17:31:50.655Z,99108.31
2022-10-07T17:34:20.376Z,99105.91
2022-10-07T17:36:48.143Z,99111.50
2022-10-07T17:39:15.505Z,99109.25
2022-10-07T17:41:42.526Z,99110.28
2022-10-07T17:44:11.729Z,99102.38
2022-10-07T17:46:40.061Z,99102.91
2022-10-07T17:49:09.882Z,99110.53
2022-10-07T17:51:38.786Z,99103.97
2022-10-07T17:54:06.438Z,99108.94
2022-10-07T17:56:37.254Z,99109.50
2022-10-07T17:59:05.433Z,99113.41
2022-10-07T18:01:34.655Z,99117.69
2022-10-07T18:04:04.551Z,99119.84
2022-10-07T18:06:33.969Z,99116.13
2022-10-07T18:09:05.304Z,99111.78
2022-10-07T18:11:53.709Z,99111.72
2022-10-07T18:14:39.159Z,99120.47
2022-10-07T18:17:06.738Z,99113.38
2022-10-07T18:19:33.667Z,99108.66
2022-10-07T18:22:00.714Z,99113.50
2022-10-07T18:24:31.916Z,99108.22
2022-10-07T18:27:00.767Z,99116.38
2022-10-07T18:29:29.839Z,99122.81
2022-10-07T18:31:59.733Z,99123.16
2022-10-07T18:34:26.604Z,99114.00
2022-10-07T18:36:56.523Z,99110.47
2022-10-07T18:39:24.650Z,99114.34
2022-10-07T18:41:51.658Z,99118.22
2022-10-07T18:44:18.777Z,99110.19
2022-10-07T18:46:45.692Z,99118.41
2022-10-07T18:49:15.429Z,99107.59
2022-10-07T18:51:43.491Z,99104.81
2022-10-07T18:54:11.000Z,99104.53
2022-10-07T18:56:41.152Z,99111.06
2022-10-07T18:59:09.912Z,99110.13
2022-10-07T19:01:37.833Z,99108.91
2022-10-07T19:04:06.622Z,99106.03
2022-10-07T19:06:38.401Z,99102.66
2022-10-07T19:09:08.254Z,99104.31
2022-10-07T19:11:35.225Z,99100.47
2022-10-07T19:14:03.196Z,99101.22
2022-10-07T19:16:36.636Z,99105.09
2022-10-07T19:19:13.773Z,99102.84
2022-10-07T19:21:41.169Z,99098.97
2022-10-07T19:24:07.952Z,99097.84
2022-10-07T19:26:37.303Z,99096.13
2022-10-07T19:29:06.328Z,99097.25
2022-10-07T19:31:36.409Z,99104.94
2022-10-07T19:34:05.831Z,99101.13
2022-10-07T19:36:35.607Z,99106.41
2022-10-07T19:39:03.499Z,99103.53
2022-10-07T19:41:32.997Z,99100.00
2022-10-07T19:44:00.506Z,99097.41
2022-10-07T19:46:30.269Z,99102.06
2022-10-07T19:48:59.183Z,99106.41
2022-10-07T19:51:27.833Z,99105.28
2022-10-07T19:53:57.228Z,99100.47
2022-10-07T19:56:38.223Z,99099.19
2022-10-07T19:59:07.242Z,99090.84
2022-10-07T20:01:37.114Z,99090.56
2022-10-07T20:04:13.463Z,99096.88
2022-10-07T20:06:41.126Z,99092.84
2022-10-07T20:09:10.514Z,99095.09
2022-10-07T20:11:38.323Z,99088.31
2022-10-07T20:14:09.882Z,99093.16
2022-10-07T20:16:40.165Z,99078.38
2022-10-07T20:19:10.978Z,99091.09
2022-10-07T20:21:39.291Z,99086.09
2022-10-07T20:24:07.764Z,99086.72
2022-10-07T20:26:37.607Z,99084.16
2022-10-07T20:29:07.065Z,99087.84
2022-10-07T20:31:36.073Z,99081.25
2022-10-07T20:34:03.933Z,99083.66
2022-10-07T20:36:35.585Z,99081.59
2022-10-07T20:39:26.721Z,99077.91
2022-10-07T20:42:12.698Z,99079.50
2022-10-07T20:44:39.622Z,99078.69
2022-10-07T20:47:08.419Z,99087.69
2022-10-07T20:49:38.611Z,99084.97
2022-10-07T20:52:07.431Z,99079.81
2022-10-07T20:54:34.223Z,99078.06
2022-10-07T20:57:01.275Z,99082.75
2022-10-07T20:59:30.089Z,99089.47
2022-10-07T21:01:58.360Z,99081.16
2022-10-07T21:04:27.059Z,99076.94
2022-10-07T21:06:57.416Z,99084.50
2022-10-07T21:09:29.368Z,99077.44
2022-10-07T21:11:57.829Z,99069.56
2022-10-07T21:14:24.611Z,99073.72
2022-10-07T21:16:53.329Z,99064.88
2022-10-07T21:19:20.203Z,99062.50
2022-10-07T21:21:47.085Z,99065.88
2022-10-07T21:24:14.224Z,99056.38
2022-10-07T21:26:41.032Z,99060.41
2022-10-07T21:29:08.362Z,99060.53
2022-10-07T21:31:35.640Z,99062.31
2022-10-07T21:34:10.098Z,99072.44
2022-10-07T21:36:40.842Z,99062.16
2022-10-07T21:39:09.256Z,99058.16
2022-10-07T21:41:38.523Z,99065.69
2022-10-07T21:44:09.377Z,99057.50
2022-10-07T21:46:37.319Z,99056.88
2022-10-07T21:49:06.064Z,99060.09
2022-10-07T21:51:34.483Z,99063.13
2022-10-07T21:54:02.237Z,99057.06
2022-10-07T21:56:31.122Z,99056.56
2022-10-07T21:59:01.151Z,99059.94
2022-10-07T22:01:28.991Z,99061.06
2022-10-07T22:03:58.185Z,99059.28
2022-10-07T22:06:44.728Z,99051.25
2022-10-07T22:09:13.189Z,99051.13
2022-10-07T22:11:40.278Z,99052.72
2022-10-07T22:14:12.350Z,99058.66
2022-10-07T22:16:39.863Z,99058.66
2022-10-07T22:19:06.745Z,99049.19
2022-10-07T22:21:39.118Z,99046.63
2022-10-07T22:24:07.453Z,99051.28
2022-10-07T22:26:52.430Z,99058.16
2022-10-07T22:29:21.594Z,99059.13
2022-10-07T22:31:48.918Z,99046.47
2022-10-07T22:34:34.233Z,99050.94
2022-10-07T22:37:01.661Z,99049.63
2022-10-07T22:39:29.135Z,99051.91
2022-10-07T22:41:56.972Z,99048.72
2022-10-07T22:44:25.472Z,99038.88
2022-10-07T22:46:52.950Z,99028.28
2022-10-07T22:49:19.911Z,99033.78
2022-10-07T22:51:46.666Z,99032.47
2022-10-07T22:54:14.080Z,99034.25
2022-10-07T22:56:40.854Z,99042.13
2022-10-07T22:59:08.536Z,99035.66
2022-10-07T23:01:35.837Z,99032.81
2022-10-07T23:04:04.068Z,99034.41
2022-10-07T23:06:32.945Z,99027.16
2022-10-07T23:09:00.302Z,99025.69
2022-10-07T23:11:28.616Z,99032.47
2022-10-07T23:13:55.534Z,99029.25
2022-10-07T23:16:25.201Z,99035.16
2022-10-07T23:18:54.807Z,99022.00
2022-10-07T23:21:23.810Z,99023.31
2022-10-07T23:23:52.930Z,99021.38
2022-10-07T23:26:22.856Z,99019.94
2022-10-07T23:28:51.682Z,99025.41
2022-10-07T23:31:20.440Z,99017.69
2022-10-07T23:33:48.765Z,99017.97
2022-10-07T23:36:17.143Z,99018.78
2022-10-07T23:38:46.787Z,99024.75
2022-10-07T23:41:16.223Z,99029.22
2022-10-07T23:43:42.979Z,99028.41
2022-10-07T23:46:13.235Z,99029.06
2022-10-07T23:48:41.029Z,99030.66
2022-10-07T23:51:09.982Z,99026.16
2022-10-07T23:53:36.727Z,99024.91
2022-10-07T23:56:03.684Z,99027.94
2022-10-07T23:58:32.466Z,99014.28
